sensor_id;sensor_type;location;lat;lon;timestamp;P1;durP1;ratioP1;P2;durP2;ratioP2
36315;SDS011;22343;50.820;2.666;2022-07-23T00:02:18;10.20;;;8.38;;
36315;SDS011;22343;50.820;2.666;2022-07-23T00:04:43;12.33;;;8.83;;
36315;SDS011;22343;50.820;2.666;2022-07-23T00:07:09;10.75;;;8.82;;
36315;SDS011;22343;50.820;2.666;2022-07-23T00:09:34;10.77;;;8.90;;
36315;SDS011;22343;50.820;2.666;2022-07-23T00:11:59;10.05;;;8.80;;
36315;SDS011;22343;50.820;2.666;2022-07-23T00:14:24;10.63;;;8.53;;
36315;SDS011;22343;50.820;2.666;2022-07-23T00:16:50;10.63;;;8.90;;
36315;SDS011;22343;50.820;2.666;2022-07-23T00:19:15;10.03;;;8.73;;
36315;SDS011;22343;50.820;2.666;2022-07-23T00:21:40;10.00;;;8.27;;
36315;SDS011;22343;50.820;2.666;2022-07-23T00:24:06;11.30;;;9.20;;
36315;SDS011;22343;50.820;2.666;2022-07-23T00:26:31;9.90;;;8.80;;
36315;SDS011;22343;50.820;2.666;2022-07-23T00:28:56;10.57;;;8.82;;
36315;SDS011;22343;50.820;2.666;2022-07-23T00:31:21;9.13;;;8.23;;
36315;SDS011;22343;50.820;2.666;2022-07-23T00:33:47;9.83;;;8.80;;
36315;SDS011;22343;50.820;2.666;2022-07-23T00:36:12;10.23;;;8.70;;
36315;SDS011;22343;50.820;2.666;2022-07-23T00:38:37;10.97;;;9.40;;
36315;SDS011;22343;50.820;2.666;2022-07-23T00:41:02;13.02;;;8.43;;
36315;SDS011;22343;50.820;2.666;2022-07-23T00:43:28;9.83;;;8.77;;
36315;SDS011;22343;50.820;2.666;2022-07-23T00:45:53;10.77;;;9.03;;
36315;SDS011;22343;50.820;2.666;2022-07-23T00:48:18;11.90;;;9.00;;
36315;SDS011;22343;50.820;2.666;2022-07-23T00:50:44;10.40;;;9.07;;
36315;SDS011;22343;50.820;2.666;2022-07-23T00:53:09;10.73;;;9.63;;
36315;SDS011;22343;50.820;2.666;2022-07-23T00:55:34;10.07;;;8.50;;
36315;SDS011;22343;50.820;2.666;2022-07-23T00:57:59;10.00;;;8.47;;
36315;SDS011;22343;50.820;2.666;2022-07-23T01:00:25;13.67;;;9.30;;
36315;SDS011;22343;50.820;2.666;2022-07-23T01:02:51;12.43;;;9.37;;
36315;SDS011;22343;50.820;2.666;2022-07-23T01:05:16;12.43;;;9.63;;
36315;SDS011;22343;50.820;2.666;2022-07-23T01:07:42;12.43;;;9.57;;
36315;SDS011;22343;50.820;2.666;2022-07-23T01:10:08;11.23;;;9.17;;
36315;SDS011;22343;50.820;2.666;2022-07-23T01:12:53;11.53;;;9.27;;
36315;SDS011;22343;50.820;2.666;2022-07-23T01:15:18;10.97;;;9.30;;
36315;SDS011;22343;50.820;2.666;2022-07-23T01:17:44;11.93;;;9.73;;
36315;SDS011;22343;50.820;2.666;2022-07-23T01:20:09;11.83;;;9.10;;
36315;SDS011;22343;50.820;2.666;2022-07-23T01:22:34;9.37;;;8.37;;
36315;SDS011;22343;50.820;2.666;2022-07-23T01:25:00;11.87;;;9.77;;
36315;SDS011;22343;50.820;2.666;2022-07-23T01:27:25;10.97;;;9.20;;
36315;SDS011;22343;50.820;2.666;2022-07-23T01:29:50;12.18;;;10.05;;
36315;SDS011;22343;50.820;2.666;2022-07-23T01:32:16;13.17;;;9.80;;
36315;SDS011;22343;50.820;2.666;2022-07-23T01:34:41;10.87;;;9.43;;
36315;SDS011;22343;50.820;2.666;2022-07-23T01:37:06;14.73;;;10.10;;
36315;SDS011;22343;50.820;2.666;2022-07-23T01:39:31;12.50;;;9.53;;
36315;SDS011;22343;50.820;2.666;2022-07-23T01:41:57;11.23;;;10.03;;
36315;SDS011;22343;50.820;2.666;2022-07-23T01:44:22;13.48;;;10.13;;
36315;SDS011;22343;50.820;2.666;2022-07-23T01:46:47;12.77;;;10.27;;
36315;SDS011;22343;50.820;2.666;2022-07-23T01:49:12;14.43;;;9.93;;
36315;SDS011;22343;50.820;2.666;2022-07-23T01:51:37;13.17;;;9.87;;
36315;SDS011;22343;50.820;2.666;2022-07-23T01:54:23;11.50;;;10.07;;
36315;SDS011;22343;50.820;2.666;2022-07-23T01:56:48;10.97;;;9.73;;
36315;SDS011;22343;50.820;2.666;2022-07-23T01:59:13;12.03;;;9.93;;
36315;SDS011;22343;50.820;2.666;2022-07-23T02:01:38;14.10;;;10.67;;
36315;SDS011;22343;50.820;2.666;2022-07-23T02:04:03;13.50;;;10.37;;
36315;SDS011;22343;50.820;2.666;2022-07-23T02:06:29;13.93;;;10.60;;
36315;SDS011;22343;50.820;2.666;2022-07-23T02:08:54;13.93;;;10.47;;
36315;SDS011;22343;50.820;2.666;2022-07-23T02:11:20;10.77;;;9.43;;
36315;SDS011;22343;50.820;2.666;2022-07-23T02:13:45;11.80;;;9.53;;
36315;SDS011;22343;50.820;2.666;2022-07-23T02:16:10;12.40;;;10.10;;
36315;SDS011;22343;50.820;2.666;2022-07-23T02:18:35;10.77;;;9.67;;
36315;SDS011;22343;50.820;2.666;2022-07-23T02:21:00;10.17;;;8.87;;
36315;SDS011;22343;50.820;2.666;2022-07-23T02:23:26;9.77;;;8.67;;
36315;SDS011;22343;50.820;2.666;2022-07-23T02:25:51;10.70;;;8.63;;
36315;SDS011;22343;50.820;2.666;2022-07-23T02:28:16;12.57;;;9.83;;
36315;SDS011;22343;50.820;2.666;2022-07-23T02:30:41;11.10;;;9.50;;
36315;SDS011;22343;50.820;2.666;2022-07-23T02:33:07;12.40;;;9.37;;
36315;SDS011;22343;50.820;2.666;2022-07-23T02:35:32;11.13;;;9.33;;
36315;SDS011;22343;50.820;2.666;2022-07-23T02:37:57;11.27;;;9.50;;
36315;SDS011;22343;50.820;2.666;2022-07-23T02:40:22;10.67;;;9.27;;
36315;SDS011;22343;50.820;2.666;2022-07-23T02:42:48;11.53;;;9.40;;
36315;SDS011;22343;50.820;2.666;2022-07-23T02:45:13;10.43;;;9.30;;
36315;SDS011;22343;50.820;2.666;2022-07-23T02:47:38;11.63;;;9.83;;
36315;SDS011;22343;50.820;2.666;2022-07-23T02:50:04;11.47;;;9.60;;
36315;SDS011;22343;50.820;2.666;2022-07-23T02:52:30;11.70;;;9.67;;
36315;SDS011;22343;50.820;2.666;2022-07-23T02:54:55;11.53;;;9.73;;
36315;SDS011;22343;50.820;2.666;2022-07-23T02:57:20;11.67;;;10.17;;
36315;SDS011;22343;50.820;2.666;2022-07-23T02:59:45;14.23;;;10.73;;
36315;SDS011;22343;50.820;2.666;2022-07-23T03:02:11;14.27;;;9.90;;
36315;SDS011;22343;50.820;2.666;2022-07-23T03:04:36;12.33;;;9.47;;
36315;SDS011;22343;50.820;2.666;2022-07-23T03:07:01;13.03;;;10.07;;
36315;SDS011;22343;50.820;2.666;2022-07-23T03:09:26;12.40;;;9.73;;
36315;SDS011;22343;50.820;2.666;2022-07-23T03:11:52;11.50;;;9.67;;
36315;SDS011;22343;50.820;2.666;2022-07-23T03:14:17;13.37;;;10.20;;
36315;SDS011;22343;50.820;2.666;2022-07-23T03:16:42;10.97;;;9.63;;
36315;SDS011;22343;50.820;2.666;2022-07-23T03:19:07;12.43;;;9.13;;
36315;SDS011;22343;50.820;2.666;2022-07-23T03:21:33;13.53;;;9.00;;
36315;SDS011;22343;50.820;2.666;2022-07-23T03:23:58;11.60;;;9.83;;
36315;SDS011;22343;50.820;2.666;2022-07-23T03:26:24;14.10;;;10.20;;
36315;SDS011;22343;50.820;2.666;2022-07-23T03:28:50;13.40;;;9.67;;
36315;SDS011;22343;50.820;2.666;2022-07-23T03:31:15;14.50;;;10.27;;
36315;SDS011;22343;50.820;2.666;2022-07-23T03:33:40;12.23;;;10.00;;
36315;SDS011;22343;50.820;2.666;2022-07-23T03:36:06;15.90;;;10.20;;
36315;SDS011;22343;50.820;2.666;2022-07-23T03:38:31;11.57;;;10.13;;
36315;SDS011;22343;50.820;2.666;2022-07-23T03:40:57;18.13;;;11.53;;
36315;SDS011;22343;50.820;2.666;2022-07-23T03:43:22;12.57;;;10.60;;
36315;SDS011;22343;50.820;2.666;2022-07-23T03:45:49;14.13;;;10.80;;
36315;SDS011;22343;50.820;2.666;2022-07-23T03:48:14;12.97;;;10.73;;
36315;SDS011;22343;50.820;2.666;2022-07-23T03:50:39;13.27;;;10.43;;
36315;SDS011;22343;50.820;2.666;2022-07-23T03:53:05;14.80;;;10.73;;
36315;SDS011;22343;50.820;2.666;2022-07-23T03:55:30;15.73;;;10.90;;
36315;SDS011;22343;50.820;2.666;2022-07-23T03:57:55;14.00;;;10.90;;
36315;SDS011;22343;50.820;2.666;2022-07-23T04:00:20;15.20;;;11.17;;
36315;SDS011;22343;50.820;2.666;2022-07-23T04:02:45;13.37;;;10.60;;
36315;SDS011;22343;50.820;2.666;2022-07-23T04:05:11;13.70;;;10.53;;
36315;SDS011;22343;50.820;2.666;2022-07-23T04:07:36;14.40;;;10.67;;
36315;SDS011;22343;50.820;2.666;2022-07-23T04:10:01;14.82;;;10.68;;
36315;SDS011;22343;50.820;2.666;2022-07-23T04:12:26;14.10;;;11.20;;
36315;SDS011;22343;50.820;2.666;2022-07-23T04:14:52;16.63;;;10.47;;
36315;SDS011;22343;50.820;2.666;2022-07-23T04:17:17;13.73;;;10.32;;
36315;SDS011;22343;50.820;2.666;2022-07-23T04:19:42;13.10;;;10.30;;
36315;SDS011;22343;50.820;2.666;2022-07-23T04:22:09;14.43;;;10.33;;
36315;SDS011;22343;50.820;2.666;2022-07-23T04:24:35;16.07;;;11.00;;
36315;SDS011;22343;50.820;2.666;2022-07-23T04:27:00;13.73;;;11.53;;
36315;SDS011;22343;50.820;2.666;2022-07-23T04:29:25;15.63;;;10.97;;
36315;SDS011;22343;50.820;2.666;2022-07-23T04:31:51;15.13;;;10.45;;
36315;SDS011;22343;50.820;2.666;2022-07-23T04:34:16;13.63;;;10.43;;
36315;SDS011;22343;50.820;2.666;2022-07-23T04:36:41;13.38;;;10.00;;
36315;SDS011;22343;50.820;2.666;2022-07-23T04:39:06;12.60;;;11.20;;
36315;SDS011;22343;50.820;2.666;2022-07-23T04:41:32;15.67;;;10.77;;
36315;SDS011;22343;50.820;2.666;2022-07-23T04:43:57;15.60;;;11.00;;
36315;SDS011;22343;50.820;2.666;2022-07-23T04:46:22;13.10;;;10.93;;
36315;SDS011;22343;50.820;2.666;2022-07-23T04:48:47;13.15;;;11.07;;
36315;SDS011;22343;50.820;2.666;2022-07-23T04:51:13;13.83;;;11.70;;
36315;SDS011;22343;50.820;2.666;2022-07-23T04:53:38;12.63;;;11.03;;
36315;SDS011;22343;50.820;2.666;2022-07-23T04:56:03;13.43;;;10.90;;
36315;SDS011;22343;50.820;2.666;2022-07-23T04:58:29;13.47;;;11.50;;
36315;SDS011;22343;50.820;2.666;2022-07-23T05:00:54;13.00;;;10.67;;
36315;SDS011;22343;50.820;2.666;2022-07-23T05:03:22;13.53;;;11.27;;
36315;SDS011;22343;50.820;2.666;2022-07-23T05:05:47;13.18;;;11.20;;
36315;SDS011;22343;50.820;2.666;2022-07-23T05:08:13;13.70;;;11.00;;
36315;SDS011;22343;50.820;2.666;2022-07-23T05:10:38;12.63;;;10.83;;
36315;SDS011;22343;50.820;2.666;2022-07-23T05:13:03;12.83;;;10.40;;
36315;SDS011;22343;50.820;2.666;2022-07-23T05:15:28;11.75;;;10.43;;
36315;SDS011;22343;50.820;2.666;2022-07-23T05:17:54;12.48;;;10.43;;
36315;SDS011;22343;50.820;2.666;2022-07-23T05:20:19;13.73;;;10.53;;
36315;SDS011;22343;50.820;2.666;2022-07-23T05:22:44;12.82;;;11.20;;
36315;SDS011;22343;50.820;2.666;2022-07-23T05:25:09;13.75;;;11.50;;
36315;SDS011;22343;50.820;2.666;2022-07-23T05:27:35;14.07;;;10.93;;
36315;SDS011;22343;50.820;2.666;2022-07-23T05:30:00;13.30;;;11.68;;
36315;SDS011;22343;50.820;2.666;2022-07-23T05:32:25;13.87;;;10.90;;
36315;SDS011;22343;50.820;2.666;2022-07-23T05:34:50;13.17;;;11.23;;
36315;SDS011;22343;50.820;2.666;2022-07-23T05:37:16;16.80;;;11.50;;
36315;SDS011;22343;50.820;2.666;2022-07-23T05:39:41;16.00;;;12.13;;
36315;SDS011;22343;50.820;2.666;2022-07-23T05:42:06;15.52;;;12.13;;
36315;SDS011;22343;50.820;2.666;2022-07-23T05:44:32;17.65;;;11.95;;
36315;SDS011;22343;50.820;2.666;2022-07-23T05:46:58;16.23;;;12.35;;
36315;SDS011;22343;50.820;2.666;2022-07-23T05:49:23;13.20;;;11.80;;
36315;SDS011;22343;50.820;2.666;2022-07-23T05:51:48;15.13;;;12.68;;
36315;SDS011;22343;50.820;2.666;2022-07-23T05:54:13;16.17;;;12.02;;
36315;SDS011;22343;50.820;2.666;2022-07-23T05:56:38;15.43;;;13.82;;
36315;SDS011;22343;50.820;2.666;2022-07-23T05:59:04;15.43;;;12.93;;
36315;SDS011;22343;50.820;2.666;2022-07-23T06:01:29;16.27;;;13.25;;
36315;SDS011;22343;50.820;2.666;2022-07-23T06:03:54;16.15;;;12.98;;
36315;SDS011;22343;50.820;2.666;2022-07-23T06:06:19;19.90;;;13.82;;
36315;SDS011;22343;50.820;2.666;2022-07-23T06:08:44;15.52;;;13.40;;
36315;SDS011;22343;50.820;2.666;2022-07-23T06:11:10;17.23;;;12.70;;
36315;SDS011;22343;50.820;2.666;2022-07-23T06:13:35;19.05;;;13.63;;
36315;SDS011;22343;50.820;2.666;2022-07-23T06:16:00;17.00;;;13.70;;
36315;SDS011;22343;50.820;2.666;2022-07-23T06:18:26;18.20;;;15.05;;
36315;SDS011;22343;50.820;2.666;2022-07-23T06:20:51;15.65;;;13.65;;
36315;SDS011;22343;50.820;2.666;2022-07-23T06:23:16;19.42;;;14.52;;
36315;SDS011;22343;50.820;2.666;2022-07-23T06:25:42;19.63;;;14.57;;
36315;SDS011;22343;50.820;2.666;2022-07-23T06:28:08;18.45;;;14.68;;
36315;SDS011;22343;50.820;2.666;2022-07-23T06:30:33;17.33;;;15.52;;
36315;SDS011;22343;50.820;2.666;2022-07-23T06:32:58;19.23;;;16.00;;
36315;SDS011;22343;50.820;2.666;2022-07-23T06:35:23;20.15;;;16.15;;
36315;SDS011;22343;50.820;2.666;2022-07-23T06:37:49;24.27;;;16.25;;
36315;SDS011;22343;50.820;2.666;2022-07-23T06:40:14;18.95;;;16.10;;
36315;SDS011;22343;50.820;2.666;2022-07-23T06:42:39;17.98;;;15.65;;
36315;SDS011;22343;50.820;2.666;2022-07-23T06:45:05;21.75;;;16.35;;
36315;SDS011;22343;50.820;2.666;2022-07-23T06:47:31;17.50;;;15.63;;
36315;SDS011;22343;50.820;2.666;2022-07-23T06:49:56;21.52;;;17.13;;
36315;SDS011;22343;50.820;2.666;2022-07-23T06:52:21;21.70;;;16.73;;
36315;SDS011;22343;50.820;2.666;2022-07-23T06:54:46;21.20;;;16.45;;
36315;SDS011;22343;50.820;2.666;2022-07-23T06:57:12;23.75;;;16.90;;
36315;SDS011;22343;50.820;2.666;2022-07-23T06:59:37;21.38;;;17.52;;
36315;SDS011;22343;50.820;2.666;2022-07-23T07:02:05;21.75;;;18.27;;
36315;SDS011;22343;50.820;2.666;2022-07-23T07:04:30;20.08;;;17.10;;
36315;SDS011;22343;50.820;2.666;2022-07-23T07:06:56;20.83;;;17.52;;
36315;SDS011;22343;50.820;2.666;2022-07-23T07:09:22;21.80;;;17.55;;
36315;SDS011;22343;50.820;2.666;2022-07-23T07:11:47;19.65;;;17.45;;
36315;SDS011;22343;50.820;2.666;2022-07-23T07:14:12;21.83;;;17.58;;
36315;SDS011;22343;50.820;2.666;2022-07-23T07:16:37;20.65;;;18.15;;
36315;SDS011;22343;50.820;2.666;2022-07-23T07:19:03;20.42;;;17.33;;
36315;SDS011;22343;50.820;2.666;2022-07-23T07:21:28;20.08;;;17.80;;
36315;SDS011;22343;50.820;2.666;2022-07-23T07:23:53;22.90;;;18.35;;
36315;SDS011;22343;50.820;2.666;2022-07-23T07:26:18;23.23;;;19.65;;
36315;SDS011;22343;50.820;2.666;2022-07-23T07:28:44;20.67;;;18.48;;
36315;SDS011;22343;50.820;2.666;2022-07-23T07:31:09;23.00;;;18.25;;
36315;SDS011;22343;50.820;2.666;2022-07-23T07:33:34;20.15;;;18.05;;
36315;SDS011;22343;50.820;2.666;2022-07-23T07:35:59;20.67;;;17.83;;
36315;SDS011;22343;50.820;2.666;2022-07-23T07:38:25;20.90;;;18.63;;
36315;SDS011;22343;50.820;2.666;2022-07-23T07:40:50;21.48;;;18.92;;
36315;SDS011;22343;50.820;2.666;2022-07-23T07:43:15;22.70;;;18.27;;
36315;SDS011;22343;50.820;2.666;2022-07-23T07:45:41;20.85;;;17.83;;
36315;SDS011;22343;50.820;2.666;2022-07-23T07:48:06;19.98;;;17.83;;
36315;SDS011;22343;50.820;2.666;2022-07-23T07:50:31;19.83;;;17.73;;
36315;SDS011;22343;50.820;2.666;2022-07-23T07:52:57;19.17;;;17.15;;
36315;SDS011;22343;50.820;2.666;2022-07-23T07:55:22;22.83;;;18.17;;
36315;SDS011;22343;50.820;2.666;2022-07-23T07:57:47;19.75;;;17.27;;
36315;SDS011;22343;50.820;2.666;2022-07-23T08:00:12;18.15;;;16.13;;
36315;SDS011;22343;50.820;2.666;2022-07-23T08:05:06;19.98;;;15.55;;
36315;SDS011;22343;50.820;2.666;2022-07-23T08:07:31;17.08;;;15.27;;
36315;SDS011;22343;50.820;2.666;2022-07-23T08:09:56;17.05;;;15.25;;
36315;SDS011;22343;50.820;2.666;2022-07-23T08:12:22;17.10;;;15.18;;
36315;SDS011;22343;50.820;2.666;2022-07-23T08:14:47;15.75;;;14.10;;
36315;SDS011;22343;50.820;2.666;2022-07-23T08:17:12;15.98;;;14.30;;
36315;SDS011;22343;50.820;2.666;2022-07-23T08:19:37;17.15;;;14.43;;
36315;SDS011;22343;50.820;2.666;2022-07-23T08:22:03;18.13;;;15.30;;
36315;SDS011;22343;50.820;2.666;2022-07-23T08:24:28;20.10;;;15.05;;
36315;SDS011;22343;50.820;2.666;2022-07-23T08:26:53;16.95;;;15.10;;
36315;SDS011;22343;50.820;2.666;2022-07-23T08:29:18;17.83;;;15.23;;
36315;SDS011;22343;50.820;2.666;2022-07-23T08:31:43;17.55;;;14.50;;
36315;SDS011;22343;50.820;2.666;2022-07-23T08:34:10;16.80;;;14.68;;
36315;SDS011;22343;50.820;2.666;2022-07-23T08:36:35;16.00;;;14.27;;
36315;SDS011;22343;50.820;2.666;2022-07-23T08:39:01;16.80;;;14.13;;
36315;SDS011;22343;50.820;2.666;2022-07-23T08:41:28;14.95;;;13.35;;
36315;SDS011;22343;50.820;2.666;2022-07-23T08:43:53;16.10;;;13.80;;
36315;SDS011;22343;50.820;2.666;2022-07-23T08:46:19;17.23;;;14.20;;
36315;SDS011;22343;50.820;2.666;2022-07-23T08:48:44;15.27;;;13.45;;
36315;SDS011;22343;50.820;2.666;2022-07-23T08:51:12;16.45;;;14.68;;
36315;SDS011;22343;50.820;2.666;2022-07-23T08:53:37;16.60;;;14.80;;
36315;SDS011;22343;50.820;2.666;2022-07-23T08:56:03;16.88;;;14.68;;
36315;SDS011;22343;50.820;2.666;2022-07-23T08:58:29;20.52;;;15.57;;
36315;SDS011;22343;50.820;2.666;2022-07-23T09:00:55;19.23;;;15.95;;
36315;SDS011;22343;50.820;2.666;2022-07-23T09:03:24;19.42;;;16.00;;
36315;SDS011;22343;50.820;2.666;2022-07-23T09:05:51;18.02;;;15.65;;
36315;SDS011;22343;50.820;2.666;2022-07-23T09:10:57;20.37;;;18.27;;
36315;SDS011;22343;50.820;2.666;2022-07-23T09:13:24;19.70;;;17.50;;
36315;SDS011;22343;50.820;2.666;2022-07-23T09:15:50;20.85;;;18.67;;
36315;SDS011;22343;50.820;2.666;2022-07-23T09:18:15;20.08;;;17.98;;
36315;SDS011;22343;50.820;2.666;2022-07-23T09:20:41;22.42;;;19.60;;
36315;SDS011;22343;50.820;2.666;2022-07-23T09:23:06;23.85;;;19.98;;
36315;SDS011;22343;50.820;2.666;2022-07-23T09:25:31;23.25;;;20.52;;
36315;SDS011;22343;50.820;2.666;2022-07-23T09:27:57;24.05;;;21.23;;
36315;SDS011;22343;50.820;2.666;2022-07-23T09:30:24;24.73;;;21.20;;
36315;SDS011;22343;50.820;2.666;2022-07-23T09:35:49;23.35;;;20.60;;
36315;SDS011;22343;50.820;2.666;2022-07-23T09:38:15;25.35;;;21.17;;
36315;SDS011;22343;50.820;2.666;2022-07-23T09:40:40;25.48;;;22.27;;
36315;SDS011;22343;50.820;2.666;2022-07-23T09:43:07;23.35;;;20.88;;
36315;SDS011;22343;50.820;2.666;2022-07-23T09:45:32;25.83;;;23.25;;
36315;SDS011;22343;50.820;2.666;2022-07-23T09:48:11;25.08;;;22.45;;
36315;SDS011;22343;50.820;2.666;2022-07-23T09:50:36;26.13;;;23.35;;
36315;SDS011;22343;50.820;2.666;2022-07-23T09:53:02;27.48;;;23.23;;
36315;SDS011;22343;50.820;2.666;2022-07-23T09:55:30;26.15;;;23.48;;
36315;SDS011;22343;50.820;2.666;2022-07-23T09:58:00;25.50;;;22.77;;
36315;SDS011;22343;50.820;2.666;2022-07-23T10:00:26;27.27;;;23.63;;
36315;SDS011;22343;50.820;2.666;2022-07-23T10:02:52;26.85;;;24.00;;
36315;SDS011;22343;50.820;2.666;2022-07-23T10:05:17;25.58;;;22.70;;
36315;SDS011;22343;50.820;2.666;2022-07-23T10:07:44;25.70;;;22.95;;
36315;SDS011;22343;50.820;2.666;2022-07-23T10:10:09;25.63;;;22.98;;
36315;SDS011;22343;50.820;2.666;2022-07-23T10:12:36;25.83;;;23.08;;
36315;SDS011;22343;50.820;2.666;2022-07-23T10:15:04;25.88;;;23.30;;
36315;SDS011;22343;50.820;2.666;2022-07-23T10:17:32;26.17;;;23.48;;
36315;SDS011;22343;50.820;2.666;2022-07-23T10:19:57;27.48;;;22.95;;
36315;SDS011;22343;50.820;2.666;2022-07-23T10:22:23;23.40;;;21.00;;
36315;SDS011;22343;50.820;2.666;2022-07-23T10:24:56;24.00;;;21.40;;
36315;SDS011;22343;50.820;2.666;2022-07-23T10:30:18;23.48;;;21.00;;
36315;SDS011;22343;50.820;2.666;2022-07-23T10:38:01;25.33;;;22.65;;
36315;SDS011;22343;50.820;2.666;2022-07-23T10:40:28;25.88;;;23.23;;
36315;SDS011;22343;50.820;2.666;2022-07-23T10:42:58;24.10;;;21.70;;
36315;SDS011;22343;50.820;2.666;2022-07-23T10:45:27;24.00;;;21.40;;
36315;SDS011;22343;50.820;2.666;2022-07-23T10:47:54;22.73;;;20.25;;
36315;SDS011;22343;50.820;2.666;2022-07-23T10:50:20;18.63;;;16.65;;
36315;SDS011;22343;50.820;2.666;2022-07-23T10:57:55;15.40;;;13.85;;
36315;SDS011;22343;50.820;2.666;2022-07-23T11:00:21;17.02;;;15.32;;
36315;SDS011;22343;50.820;2.666;2022-07-23T11:02:47;19.08;;;16.70;;
36315;SDS011;22343;50.820;2.666;2022-07-23T11:05:14;16.95;;;15.15;;
36315;SDS011;22343;50.820;2.666;2022-07-23T11:13:25;17.25;;;15.48;;
36315;SDS011;22343;50.820;2.666;2022-07-23T11:16:26;17.20;;;15.52;;
36315;SDS011;22343;50.820;2.666;2022-07-23T11:18:54;15.85;;;14.20;;
36315;SDS011;22343;50.820;2.666;2022-07-23T11:31:56;12.82;;;11.52;;
36315;SDS011;22343;50.820;2.666;2022-07-23T11:34:31;15.27;;;13.57;;
36315;SDS011;22343;50.820;2.666;2022-07-23T11:36:57;14.43;;;12.80;;
36315;SDS011;22343;50.820;2.666;2022-07-23T11:39:24;15.07;;;13.55;;
36315;SDS011;22343;50.820;2.666;2022-07-23T11:41:50;14.95;;;13.55;;
36315;SDS011;22343;50.820;2.666;2022-07-23T11:46:57;15.48;;;13.98;;
36315;SDS011;22343;50.820;2.666;2022-07-23T11:49:22;15.07;;;13.55;;
36315;SDS011;22343;50.820;2.666;2022-07-23T11:52:01;15.52;;;13.95;;
36315;SDS011;22343;50.820;2.666;2022-07-23T11:54:27;15.98;;;14.48;;
36315;SDS011;22343;50.820;2.666;2022-07-23T11:56:56;15.35;;;13.80;;
36315;SDS011;22343;50.820;2.666;2022-07-23T11:59:21;15.00;;;13.50;;
36315;SDS011;22343;50.820;2.666;2022-07-23T12:02:02;14.60;;;13.27;;
36315;SDS011;22343;50.820;2.666;2022-07-23T12:04:40;17.45;;;14.70;;
36315;SDS011;22343;50.820;2.666;2022-07-23T12:09:50;14.95;;;13.45;;
36315;SDS011;22343;50.820;2.666;2022-07-23T12:12:15;15.20;;;13.60;;
36315;SDS011;22343;50.820;2.666;2022-07-23T12:14:47;14.43;;;12.98;;
36315;SDS011;22343;50.820;2.666;2022-07-23T12:17:12;14.93;;;13.20;;
36315;SDS011;22343;50.820;2.666;2022-07-23T12:19:37;15.13;;;11.75;;
36315;SDS011;22343;50.820;2.666;2022-07-23T12:22:03;13.18;;;11.77;;
36315;SDS011;22343;50.820;2.666;2022-07-23T12:24:29;12.48;;;11.07;;
36315;SDS011;22343;50.820;2.666;2022-07-23T12:27:07;12.70;;;11.40;;
36315;SDS011;22343;50.820;2.666;2022-07-23T12:29:36;13.30;;;11.93;;
36315;SDS011;22343;50.820;2.666;2022-07-23T12:32:01;12.57;;;11.30;;
36315;SDS011;22343;50.820;2.666;2022-07-23T12:34:27;10.90;;;9.88;;
36315;SDS011;22343;50.820;2.666;2022-07-23T12:36:52;11.80;;;10.60;;
36315;SDS011;22343;50.820;2.666;2022-07-23T12:39:32;12.37;;;10.93;;
36315;SDS011;22343;50.820;2.666;2022-07-23T12:41:58;10.80;;;9.75;;
36315;SDS011;22343;50.820;2.666;2022-07-23T12:44:23;11.23;;;9.88;;
36315;SDS011;22343;50.820;2.666;2022-07-23T12:46:54;12.55;;;11.23;;
36315;SDS011;22343;50.820;2.666;2022-07-23T12:49:26;11.93;;;10.75;;
36315;SDS011;22343;50.820;2.666;2022-07-23T12:51:51;11.13;;;9.65;;
36315;SDS011;22343;50.820;2.666;2022-07-23T12:54:17;10.88;;;9.77;;
36315;SDS011;22343;50.820;2.666;2022-07-23T12:56:45;10.82;;;9.73;;
36315;SDS011;22343;50.820;2.666;2022-07-23T12:59:11;11.05;;;9.95;;
36315;SDS011;22343;50.820;2.666;2022-07-23T13:01:39;9.75;;;8.68;;
36315;SDS011;22343;50.820;2.666;2022-07-23T13:04:11;11.50;;;10.40;;
36315;SDS011;22343;50.820;2.666;2022-07-23T13:09:04;10.23;;;9.20;;
36315;SDS011;22343;50.820;2.666;2022-07-23T13:11:29;11.15;;;10.05;;
36315;SDS011;22343;50.820;2.666;2022-07-23T13:13:55;12.48;;;10.05;;
36315;SDS011;22343;50.820;2.666;2022-07-23T13:16:20;10.60;;;9.55;;
36315;SDS011;22343;50.820;2.666;2022-07-23T13:18:45;10.97;;;9.93;;
36315;SDS011;22343;50.820;2.666;2022-07-23T13:21:11;11.07;;;9.98;;
36315;SDS011;22343;50.820;2.666;2022-07-23T13:23:36;10.73;;;9.65;;
36315;SDS011;22343;50.820;2.666;2022-07-23T13:26:02;13.38;;;10.10;;
36315;SDS011;22343;50.820;2.666;2022-07-23T13:28:27;12.13;;;9.93;;
36315;SDS011;22343;50.820;2.666;2022-07-23T13:30:52;10.32;;;9.25;;
36315;SDS011;22343;50.820;2.666;2022-07-23T13:33:19;11.63;;;10.10;;
36315;SDS011;22343;50.820;2.666;2022-07-23T13:35:44;10.77;;;9.60;;
36315;SDS011;22343;50.820;2.666;2022-07-23T13:38:09;10.40;;;9.10;;
36315;SDS011;22343;50.820;2.666;2022-07-23T13:40:38;12.07;;;9.32;;
36315;SDS011;22343;50.820;2.666;2022-07-23T13:43:04;9.75;;;8.75;;
36315;SDS011;22343;50.820;2.666;2022-07-23T13:45:30;10.45;;;9.38;;
36315;SDS011;22343;50.820;2.666;2022-07-23T13:47:56;10.13;;;9.00;;
36315;SDS011;22343;50.820;2.666;2022-07-23T13:50:21;13.10;;;9.57;;
36315;SDS011;22343;50.820;2.666;2022-07-23T13:52:46;9.82;;;8.82;;
36315;SDS011;22343;50.820;2.666;2022-07-23T13:55:11;9.68;;;8.75;;
36315;SDS011;22343;50.820;2.666;2022-07-23T13:57:37;10.50;;;9.15;;
36315;SDS011;22343;50.820;2.666;2022-07-23T14:00:03;10.20;;;8.85;;
36315;SDS011;22343;50.820;2.666;2022-07-23T14:02:28;10.05;;;9.05;;
36315;SDS011;22343;50.820;2.666;2022-07-23T14:04:53;10.60;;;8.48;;
36315;SDS011;22343;50.820;2.666;2022-07-23T14:07:19;9.60;;;8.32;;
36315;SDS011;22343;50.820;2.666;2022-07-23T14:09:44;9.15;;;8.32;;
36315;SDS011;22343;50.820;2.666;2022-07-23T14:12:10;9.35;;;8.35;;
36315;SDS011;22343;50.820;2.666;2022-07-23T14:14:35;9.10;;;8.30;;
36315;SDS011;22343;50.820;2.666;2022-07-23T14:17:00;9.68;;;8.77;;
36315;SDS011;22343;50.820;2.666;2022-07-23T14:19:26;13.68;;;12.25;;
36315;SDS011;22343;50.820;2.666;2022-07-23T14:21:51;12.80;;;11.43;;
36315;SDS011;22343;50.820;2.666;2022-07-23T14:24:16;16.50;;;13.93;;
36315;SDS011;22343;50.820;2.666;2022-07-23T14:26:41;15.20;;;13.70;;
36315;SDS011;22343;50.820;2.666;2022-07-23T14:29:07;15.35;;;13.85;;
36315;SDS011;22343;50.820;2.666;2022-07-23T14:31:32;16.10;;;14.48;;
36315;SDS011;22343;50.820;2.666;2022-07-23T14:33:57;16.60;;;14.93;;
36315;SDS011;22343;50.820;2.666;2022-07-23T14:36:25;17.35;;;15.60;;
36315;SDS011;22343;50.820;2.666;2022-07-23T14:38:50;15.30;;;13.80;;
36315;SDS011;22343;50.820;2.666;2022-07-23T14:41:15;16.73;;;14.88;;
36315;SDS011;22343;50.820;2.666;2022-07-23T14:43:40;16.95;;;15.35;;
36315;SDS011;22343;50.820;2.666;2022-07-23T14:46:07;19.35;;;15.95;;
36315;SDS011;22343;50.820;2.666;2022-07-23T14:48:32;16.50;;;14.75;;
36315;SDS011;22343;50.820;2.666;2022-07-23T14:50:57;16.85;;;15.15;;
36315;SDS011;22343;50.820;2.666;2022-07-23T14:53:22;18.13;;;16.53;;
36315;SDS011;22343;50.820;2.666;2022-07-23T14:55:49;19.30;;;17.30;;
36315;SDS011;22343;50.820;2.666;2022-07-23T14:58:15;20.52;;;18.50;;
36315;SDS011;22343;50.820;2.666;2022-07-23T15:00:40;20.35;;;18.27;;
36315;SDS011;22343;50.820;2.666;2022-07-23T15:03:05;20.92;;;18.65;;
36315;SDS011;22343;50.820;2.666;2022-07-23T15:05:30;20.80;;;18.48;;